sensor_id;sensor_type;location;lat;lon;timestamp;temperature;humidity
15103;DHT22;7652;53.584;9.998;2022-09-12T00:02:23;14.80;99.90
15103;DHT22;7652;53.584;9.998;2022-09-12T00:05:26;14.80;99.90
15103;DHT22;7652;53.584;9.998;2022-09-12T00:08:29;14.80;99.90
15103;DHT22;7652;53.584;9.998;2022-09-12T00:11:34;14.80;99.90
15103;DHT22;7652;53.584;9.998;2022-09-12T00:14:37;14.80;99.90
15103;DHT22;7652;53.584;9.998;2022-09-12T00:17:41;14.80;99.90
15103;DHT22;7652;53.584;9.998;2022-09-12T00:20:45;14.70;99.90
15103;DHT22;7652;53.584;9.998;2022-09-12T00:23:49;14.80;99.90
15103;DHT22;7652;53.584;9.998;2022-09-12T00:26:52;14.70;99.90
15103;DHT22;7652;53.584;9.998;2022-09-12T00:29:55;14.70;99.90
15103;DHT22;7652;53.584;9.998;2022-09-12T00:32:59;14.70;99.90
15103;DHT22;7652;53.584;9.998;2022-09-12T00:36:04;14.60;99.90
15103;DHT22;7652;53.584;9.998;2022-09-12T00:39:09;14.70;99.90
15103;DHT22;7652;53.584;9.998;2022-09-12T00:42:13;14.60;99.90
15103;DHT22;7652;53.584;9.998;2022-09-12T00:45:22;14.60;99.90
15103;DHT22;7652;53.584;9.998;2022-09-12T00:48:35;14.50;99.90
15103;DHT22;7652;53.584;9.998;2022-09-12T00:51:44;14.60;99.90
15103;DHT22;7652;53.584;9.998;2022-09-12T00:54:51;14.50;99.90
15103;DHT22;7652;53.584;9.998;2022-09-12T00:58:00;14.50;99.90
15103;DHT22;7652;53.584;9.998;2022-09-12T01:01:05;14.40;99.90
15103;DHT22;7652;53.584;9.998;2022-09-12T01:04:10;14.40;99.90
15103;DHT22;7652;53.584;9.998;2022-09-12T01:07:14;14.40;99.90
15103;DHT22;7652;53.584;9.998;2022-09-12T01:10:18;14.40;99.90
15103;DHT22;7652;53.584;9.998;2022-09-12T01:13:22;14.40;99.90
15103;DHT22;7652;53.584;9.998;2022-09-12T01:16:25;14.40;99.90
15103;DHT22;7652;53.584;9.998;2022-09-12T01:23:32;14.40;99.90
15103;DHT22;7652;53.584;9.998;2022-09-12T01:30:43;14.30;99.90
15103;DHT22;7652;53.584;9.998;2022-09-12T01:33:59;14.30;99.90
15103;DHT22;7652;53.584;9.998;2022-09-12T01:37:11;14.20;99.90
15103;DHT22;7652;53.584;9.998;2022-09-12T01:40:21;14.20;99.90
15103;DHT22;7652;53.584;9.998;2022-09-12T01:43:32;14.20;99.90
15103;DHT22;7652;53.584;9.998;2022-09-12T01:46:42;14.10;99.90
15103;DHT22;7652;53.584;9.998;2022-09-12T01:49:51;14.10;99.90
15103;DHT22;7652;53.584;9.998;2022-09-12T01:53:01;14.20;99.90
15103;DHT22;7652;53.584;9.998;2022-09-12T01:56:08;14.10;99.90
15103;DHT22;7652;53.584;9.998;2022-09-12T01:59:16;14.10;99.90
15103;DHT22;7652;53.584;9.998;2022-09-12T02:02:25;14.10;99.90
15103;DHT22;7652;53.584;9.998;2022-09-12T02:05:33;14.10;99.90
15103;DHT22;7652;53.584;9.998;2022-09-12T02:08:40;14.10;99.90
15103;DHT22;7652;53.584;9.998;2022-09-12T02:11:46;14.20;99.90
15103;DHT22;7652;53.584;9.998;2022-09-12T02:14:54;14.10;99.90
15103;DHT22;7652;53.584;9.998;2022-09-12T02:18:00;14.00;99.90
15103;DHT22;7652;53.584;9.998;2022-09-12T02:21:04;13.90;99.90
15103;DHT22;7652;53.584;9.998;2022-09-12T02:24:09;14.00;99.90
15103;DHT22;7652;53.584;9.998;2022-09-12T02:27:17;13.90;99.90
15103;DHT22;7652;53.584;9.998;2022-09-12T02:30:23;13.90;99.90
15103;DHT22;7652;53.584;9.998;2022-09-12T02:33:32;13.90;99.90
15103;DHT22;7652;53.584;9.998;2022-09-12T02:36:45;13.90;99.90
15103;DHT22;7652;53.584;9.998;2022-09-12T02:39:50;13.90;99.90
15103;DHT22;7652;53.584;9.998;2022-09-12T02:42:56;13.90;99.90
15103;DHT22;7652;53.584;9.998;2022-09-12T02:45:59;14.00;99.90
15103;DHT22;7652;53.584;9.998;2022-09-12T02:49:04;13.90;99.90
15103;DHT22;7652;53.584;9.998;2022-09-12T02:52:10;13.90;99.90
15103;DHT22;7652;53.584;9.998;2022-09-12T02:55:14;13.90;99.90
15103;DHT22;7652;53.584;9.998;2022-09-12T02:58:20;13.90;99.90
15103;DHT22;7652;53.584;9.998;2022-09-12T03:01:36;13.90;99.90
15103;DHT22;7652;53.584;9.998;2022-09-12T03:04:53;13.90;99.90
15103;DHT22;7652;53.584;9.998;2022-09-12T03:08:22;13.80;99.90
15103;DHT22;7652;53.584;9.998;2022-09-12T03:11:44;13.90;99.90
15103;DHT22;7652;53.584;9.998;2022-09-12T03:15:07;13.80;99.90
15103;DHT22;7652;53.584;9.998;2022-09-12T03:18:22;13.80;99.90
15103;DHT22;7652;53.584;9.998;2022-09-12T03:21:32;13.80;99.90
15103;DHT22;7652;53.584;9.998;2022-09-12T03:24:42;13.80;99.90
15103;DHT22;7652;53.584;9.998;2022-09-12T03:27:52;13.80;99.90
15103;DHT22;7652;53.584;9.998;2022-09-12T03:30:57;13.70;99.90
15103;DHT22;7652;53.584;9.998;2022-09-12T03:34:01;13.70;99.90
15103;DHT22;7652;53.584;9.998;2022-09-12T03:37:05;13.60;99.90
15103;DHT22;7652;53.584;9.998;2022-09-12T03:40:09;13.50;99.90
15103;DHT22;7652;53.584;9.998;2022-09-12T03:43:13;13.60;99.90
15103;DHT22;7652;53.584;9.998;2022-09-12T03:46:16;13.60;99.90
15103;DHT22;7652;53.584;9.998;2022-09-12T03:49:19;13.50;99.90
15103;DHT22;7652;53.584;9.998;2022-09-12T03:52:23;13.50;99.90
15103;DHT22;7652;53.584;9.998;2022-09-12T03:55:26;13.50;99.90
15103;DHT22;7652;53.584;9.998;2022-09-12T03:58:30;13.50;99.90
15103;DHT22;7652;53.584;9.998;2022-09-12T04:01:33;13.50;99.90
15103;DHT22;7652;53.584;9.998;2022-09-12T04:04:36;13.60;99.90
15103;DHT22;7652;53.584;9.998;2022-09-12T04:07:40;13.50;99.90
15103;DHT22;7652;53.584;9.998;2022-09-12T04:10:43;13.40;99.90
15103;DHT22;7652;53.584;9.998;2022-09-12T04:13:48;13.30;99.90
15103;DHT22;7652;53.584;9.998;2022-09-12T04:16:51;13.40;99.90
15103;DHT22;7652;53.584;9.998;2022-09-12T04:19:54;13.40;99.90
15103;DHT22;7652;53.584;9.998;2022-09-12T04:22:58;13.40;99.90
15103;DHT22;7652;53.584;9.998;2022-09-12T04:26:02;13.40;99.90
15103;DHT22;7652;53.584;9.998;2022-09-12T04:29:08;13.30;99.90
15103;DHT22;7652;53.584;9.998;2022-09-12T04:32:11;13.20;99.90
15103;DHT22;7652;53.584;9.998;2022-09-12T04:35:15;13.10;99.90
15103;DHT22;7652;53.584;9.998;2022-09-12T04:38:20;13.10;99.90
15103;DHT22;7652;53.584;9.998;2022-09-12T04:41:25;13.00;99.90
15103;DHT22;7652;53.584;9.998;2022-09-12T04:44:28;13.00;99.90
15103;DHT22;7652;53.584;9.998;2022-09-12T04:47:31;13.20;99.90
15103;DHT22;7652;53.584;9.998;2022-09-12T04:50:34;13.40;99.90
15103;DHT22;7652;53.584;9.998;2022-09-12T04:53:39;13.40;99.90
15103;DHT22;7652;53.584;9.998;2022-09-12T04:56:44;13.50;99.90
15103;DHT22;7652;53.584;9.998;2022-09-12T04:59:47;13.50;99.90
15103;DHT22;7652;53.584;9.998;2022-09-12T05:02:50;13.40;99.90
15103;DHT22;7652;53.584;9.998;2022-09-12T05:05:53;13.40;99.90
15103;DHT22;7652;53.584;9.998;2022-09-12T05:08:59;13.20;99.90
15103;DHT22;7652;53.584;9.998;2022-09-12T05:12:03;13.20;99.90
15103;DHT22;7652;53.584;9.998;2022-09-12T05:15:07;13.20;99.90
15103;DHT22;7652;53.584;9.998;2022-09-12T05:18:11;13.20;99.90
15103;DHT22;7652;53.584;9.998;2022-09-12T05:21:16;13.20;99.90
15103;DHT22;7652;53.584;9.998;2022-09-12T05:24:20;13.10;99.90
15103;DHT22;7652;53.584;9.998;2022-09-12T05:27:23;13.10;99.90
15103;DHT22;7652;53.584;9.998;2022-09-12T05:30:26;13.20;99.90
15103;DHT22;7652;53.584;9.998;2022-09-12T05:33:30;13.20;99.90
15103;DHT22;7652;53.584;9.998;2022-09-12T05:36:33;13.20;99.90
15103;DHT22;7652;53.584;9.998;2022-09-12T05:39:39;13.30;99.90
15103;DHT22;7652;53.584;9.998;2022-09-12T05:42:42;13.40;99.90
15103;DHT22;7652;53.584;9.998;2022-09-12T05:45:45;13.40;99.90
15103;DHT22;7652;53.584;9.998;2022-09-12T05:48:48;13.50;99.90
15103;DHT22;7652;53.584;9.998;2022-09-12T05:51:56;13.50;99.90
15103;DHT22;7652;53.584;9.998;2022-09-12T05:55:01;13.50;99.90
15103;DHT22;7652;53.584;9.998;2022-09-12T05:58:04;13.60;99.90
15103;DHT22;7652;53.584;9.998;2022-09-12T06:01:09;13.70;99.90
15103;DHT22;7652;53.584;9.998;2022-09-12T06:04:13;13.70;99.90
15103;DHT22;7652;53.584;9.998;2022-09-12T06:07:16;13.80;99.90
15103;DHT22;7652;53.584;9.998;2022-09-12T06:10:21;13.90;99.90
15103;DHT22;7652;53.584;9.998;2022-09-12T06:13:24;13.90;99.90
15103;DHT22;7652;53.584;9.998;2022-09-12T06:16:28;14.00;99.90
15103;DHT22;7652;53.584;9.998;2022-09-12T06:19:31;14.00;99.90
15103;DHT22;7652;53.584;9.998;2022-09-12T06:22:35;14.10;99.90
15103;DHT22;7652;53.584;9.998;2022-09-12T06:25:45;14.10;99.90
15103;DHT22;7652;53.584;9.998;2022-09-12T06:28:49;14.20;99.90
15103;DHT22;7652;53.584;9.998;2022-09-12T06:31:52;14.20;99.90
15103;DHT22;7652;53.584;9.998;2022-09-12T06:34:55;14.30;99.90
15103;DHT22;7652;53.584;9.998;2022-09-12T06:37:58;14.30;99.90
15103;DHT22;7652;53.584;9.998;2022-09-12T06:41:04;14.40;99.90
15103;DHT22;7652;53.584;9.998;2022-09-12T06:44:09;14.40;99.90
15103;DHT22;7652;53.584;9.998;2022-09-12T06:47:13;14.50;99.90
15103;DHT22;7652;53.584;9.998;2022-09-12T06:50:16;14.60;99.90
15103;DHT22;7652;53.584;9.998;2022-09-12T06:53:19;14.70;99.90
15103;DHT22;7652;53.584;9.998;2022-09-12T06:56:25;14.70;99.90
15103;DHT22;7652;53.584;9.998;2022-09-12T06:59:28;14.80;99.90
15103;DHT22;7652;53.584;9.998;2022-09-12T07:02:32;14.80;99.90
15103;DHT22;7652;53.584;9.998;2022-09-12T07:05:35;14.90;99.90
15103;DHT22;7652;53.584;9.998;2022-09-12T07:08:39;15.00;99.90
15103;DHT22;7652;53.584;9.998;2022-09-12T07:11:44;15.10;99.90
15103;DHT22;7652;53.584;9.998;2022-09-12T07:14:47;15.20;99.90
15103;DHT22;7652;53.584;9.998;2022-09-12T07:17:50;15.30;99.90
15103;DHT22;7652;53.584;9.998;2022-09-12T07:20:53;15.30;99.90
15103;DHT22;7652;53.584;9.998;2022-09-12T07:23:57;15.40;99.90
15103;DHT22;7652;53.584;9.998;2022-09-12T07:27:01;15.50;99.90
15103;DHT22;7652;53.584;9.998;2022-09-12T07:30:05;15.60;99.90
15103;DHT22;7652;53.584;9.998;2022-09-12T07:33:08;15.70;99.90
15103;DHT22;7652;53.584;9.998;2022-09-12T07:36:13;15.80;99.90
15103;DHT22;7652;53.584;9.998;2022-09-12T07:39:16;15.80;99.90
15103;DHT22;7652;53.584;9.998;2022-09-12T07:42:21;15.90;99.90
15103;DHT22;7652;53.584;9.998;2022-09-12T07:45:24;16.00;99.90
15103;DHT22;7652;53.584;9.998;2022-09-12T07:48:28;16.20;99.90
15103;DHT22;7652;53.584;9.998;2022-09-12T07:51:31;16.40;99.90
15103;DHT22;7652;53.584;9.998;2022-09-12T07:54:34;16.70;99.90
15103;DHT22;7652;53.584;9.998;2022-09-12T07:57:38;16.90;99.90
15103;DHT22;7652;53.584;9.998;2022-09-12T08:00:41;17.00;99.90
15103;DHT22;7652;53.584;9.998;2022-09-12T08:03:48;17.20;99.90
15103;DHT22;7652;53.584;9.998;2022-09-12T08:06:52;17.50;99.90
15103;DHT22;7652;53.584;9.998;2022-09-12T08:09:55;17.70;99.90
15103;DHT22;7652;53.584;9.998;2022-09-12T08:12:59;17.80;99.90
15103;DHT22;7652;53.584;9.998;2022-09-12T08:16:06;17.90;99.90
15103;DHT22;7652;53.584;9.998;2022-09-12T08:19:09;18.00;99.90
15103;DHT22;7652;53.584;9.998;2022-09-12T08:22:12;18.10;99.90
15103;DHT22;7652;53.584;9.998;2022-09-12T08:25:16;18.50;99.90
15103;DHT22;7652;53.584;9.998;2022-09-12T08:28:20;18.70;99.90
15103;DHT22;7652;53.584;9.998;2022-09-12T08:31:25;18.70;99.90
15103;DHT22;7652;53.584;9.998;2022-09-12T08:34:28;18.80;99.90
15103;DHT22;7652;53.584;9.998;2022-09-12T08:37:31;18.90;99.90
15103;DHT22;7652;53.584;9.998;2022-09-12T08:40:43;18.80;99.90
15103;DHT22;7652;53.584;9.998;2022-09-12T08:44:03;18.90;99.90
15103;DHT22;7652;53.584;9.998;2022-09-12T08:47:16;19.00;99.90
15103;DHT22;7652;53.584;9.998;2022-09-12T08:50:21;19.00;99.90
15103;DHT22;7652;53.584;9.998;2022-09-12T08:53:27;18.90;99.90
15103;DHT22;7652;53.584;9.998;2022-09-12T08:56:35;19.00;99.90
15103;DHT22;7652;53.584;9.998;2022-09-12T08:59:42;19.10;99.90
15103;DHT22;7652;53.584;9.998;2022-09-12T09:07:01;19.30;99.90
15103;DHT22;7652;53.584;9.998;2022-09-12T09:10:17;19.30;99.90
15103;DHT22;7652;53.584;9.998;2022-09-12T09:13:36;19.40;99.90
15103;DHT22;7652;53.584;9.998;2022-09-12T09:17:10;19.50;99.90
15103;DHT22;7652;53.584;9.998;2022-09-12T09:20:21;19.50;99.90
15103;DHT22;7652;53.584;9.998;2022-09-12T09:23:28;19.50;99.90
15103;DHT22;7652;53.584;9.998;2022-09-12T09:26:40;19.70;99.90
15103;DHT22;7652;53.584;9.998;2022-09-12T09:29:46;19.80;99.90
15103;DHT22;7652;53.584;9.998;2022-09-12T09:32:55;19.80;99.90
15103;DHT22;7652;53.584;9.998;2022-09-12T09:36:05;19.90;99.90
15103;DHT22;7652;53.584;9.998;2022-09-12T09:39:22;20.00;99.90
15103;DHT22;7652;53.584;9.998;2022-09-12T09:42:33;20.10;99.90
15103;DHT22;7652;53.584;9.998;2022-09-12T09:45:40;20.20;99.90
15103;DHT22;7652;53.584;9.998;2022-09-12T09:48:49;20.10;99.90
15103;DHT22;7652;53.584;9.998;2022-09-12T09:51:53;20.20;99.90
15103;DHT22;7652;53.584;9.998;2022-09-12T09:55:01;20.30;99.90
15103;DHT22;7652;53.584;9.998;2022-09-12T09:58:05;20.40;99.90
15103;DHT22;7652;53.584;9.998;2022-09-12T10:01:13;20.40;99.90
15103;DHT22;7652;53.584;9.998;2022-09-12T10:04:20;20.40;99.90
15103;DHT22;7652;53.584;9.998;2022-09-12T10:07:25;20.40;99.90
15103;DHT22;7652;53.584;9.998;2022-09-12T10:10:28;20.40;99.90
15103;DHT22;7652;53.584;9.998;2022-09-12T10:13:38;20.40;99.90
15103;DHT22;7652;53.584;9.998;2022-09-12T10:16:49;20.60;99.90
15103;DHT22;7652;53.584;9.998;2022-09-12T10:19:56;20.70;99.90
15103;DHT22;7652;53.584;9.998;2022-09-12T10:23:28;21.00;99.90
15103;DHT22;7652;53.584;9.998;2022-09-12T10:26:34;21.10;99.90
15103;DHT22;7652;53.584;9.998;2022-09-12T10:29:41;21.10;99.90
15103;DHT22;7652;53.584;9.998;2022-09-12T10:32:48;21.20;99.90
15103;DHT22;7652;53.584;9.998;2022-09-12T10:35:54;21.30;99.90
15103;DHT22;7652;53.584;9.998;2022-09-12T10:39:00;21.50;99.90
15103;DHT22;7652;53.584;9.998;2022-09-12T10:42:04;21.50;99.90
15103;DHT22;7652;53.584;9.998;2022-09-12T10:45:21;21.50;99.90
15103;DHT22;7652;53.584;9.998;2022-09-12T10:48:28;21.60;99.90
15103;DHT22;7652;53.584;9.998;2022-09-12T10:51:33;21.70;99.90
15103;DHT22;7652;53.584;9.998;2022-09-12T10:54:36;21.90;99.90
15103;DHT22;7652;53.584;9.998;2022-09-12T10:57:51;21.90;99.90
15103;DHT22;7652;53.584;9.998;2022-09-12T11:01:05;22.00;99.90
15103;DHT22;7652;53.584;9.998;2022-09-12T11:04:26;22.10;99.90
15103;DHT22;7652;53.584;9.998;2022-09-12T11:07:45;21.90;99.90
15103;DHT22;7652;53.584;9.998;2022-09-12T11:10:54;21.90;99.90
15103;DHT22;7652;53.584;9.998;2022-09-12T11:14:08;22.00;99.90
15103;DHT22;7652;53.584;9.998;2022-09-12T11:17:24;22.10;99.90
15103;DHT22;7652;53.584;9.998;2022-09-12T11:20:47;22.30;99.90
15103;DHT22;7652;53.584;9.998;2022-09-12T11:24:15;22.30;99.90
15103;DHT22;7652;53.584;9.998;2022-09-12T11:27:34;22.40;99.90
15103;DHT22;7652;53.584;9.998;2022-09-12T11:30:48;22.50;99.90
15103;DHT22;7652;53.584;9.998;2022-09-12T11:33:56;22.10;99.90
15103;DHT22;7652;53.584;9.998;2022-09-12T11:37:12;22.30;99.90
15103;DHT22;7652;53.584;9.998;2022-09-12T11:40:28;22.40;99.90
15103;DHT22;7652;53.584;9.998;2022-09-12T11:43:37;22.50;99.90
15103;DHT22;7652;53.584;9.998;2022-09-12T11:46:42;22.60;99.90
15103;DHT22;7652;53.584;9.998;2022-09-12T11:49:52;22.50;99.90
15103;DHT22;7652;53.584;9.998;2022-09-12T11:53:01;22.70;99.90
15103;DHT22;7652;53.584;9.998;2022-09-12T11:56:14;22.70;99.90
15103;DHT22;7652;53.584;9.998;2022-09-12T11:59:30;22.80;99.90
15103;DHT22;7652;53.584;9.998;2022-09-12T12:02:38;22.80;99.90
15103;DHT22;7652;53.584;9.998;2022-09-12T12:05:47;22.80;99.90
15103;DHT22;7652;53.584;9.998;2022-09-12T12:08:53;22.80;99.90
15103;DHT22;7652;53.584;9.998;2022-09-12T12:12:00;22.80;99.90
15103;DHT22;7652;53.584;9.998;2022-09-12T12:15:06;23.00;99.90
15103;DHT22;7652;53.584;9.998;2022-09-12T12:18:15;23.10;99.90
15103;DHT22;7652;53.584;9.998;2022-09-12T12:21:36;23.40;99.90
15103;DHT22;7652;53.584;9.998;2022-09-12T12:25:01;23.80;99.90
15103;DHT22;7652;53.584;9.998;2022-09-12T12:28:06;23.90;99.90
15103;DHT22;7652;53.584;9.998;2022-09-12T12:31:09;24.20;99.90
15103;DHT22;7652;53.584;9.998;2022-09-12T12:34:27;24.90;99.90
15103;DHT22;7652;53.584;9.998;2022-09-12T12:37:50;25.30;99.90
15103;DHT22;7652;53.584;9.998;2022-09-12T12:44:49;24.80;99.90
15103;DHT22;7652;53.584;9.998;2022-09-12T12:47:54;24.40;99.90
15103;DHT22;7652;53.584;9.998;2022-09-12T12:51:20;24.10;99.90
15103;DHT22;7652;53.584;9.998;2022-09-12T12:54:46;24.00;99.90
15103;DHT22;7652;53.584;9.998;2022-09-12T12:57:51;23.80;99.90
15103;DHT22;7652;53.584;9.998;2022-09-12T13:01:14;24.10;99.90
15103;DHT22;7652;53.584;9.998;2022-09-12T13:04:20;24.10;99.90
15103;DHT22;7652;53.584;9.998;2022-09-12T13:07:28;23.90;99.90
15103;DHT22;7652;53.584;9.998;2022-09-12T13:10:31;23.90;99.90
15103;DHT22;7652;53.584;9.998;2022-09-12T13:13:37;23.80;99.90
15103;DHT22;7652;53.584;9.998;2022-09-12T13:16:52;23.60;99.90
15103;DHT22;7652;53.584;9.998;2022-09-12T13:20:12;23.60;99.90
15103;DHT22;7652;53.584;9.998;2022-09-12T13:23:30;23.60;99.90
15103;DHT22;7652;53.584;9.998;2022-09-12T13:26:39;23.80;99.90
15103;DHT22;7652;53.584;9.998;2022-09-12T13:29:43;23.60;99.90
15103;DHT22;7652;53.584;9.998;2022-09-12T13:32:48;23.70;99.90
15103;DHT22;7652;53.584;9.998;2022-09-12T13:36:09;23.70;99.90
15103;DHT22;7652;53.584;9.998;2022-09-12T13:39:20;24.00;99.90
15103;DHT22;7652;53.584;9.998;2022-09-12T13:42:41;24.00;99.90
15103;DHT22;7652;53.584;9.998;2022-09-12T13:45:46;24.00;99.90
15103;DHT22;7652;53.584;9.998;2022-09-12T13:48:51;24.00;99.90
15103;DHT22;7652;53.584;9.998;2022-09-12T13:51:58;23.80;99.90
15103;DHT22;7652;53.584;9.998;2022-09-12T13:55:07;23.60;99.90
15103;DHT22;7652;53.584;9.998;2022-09-12T13:58:16;23.50;99.90
15103;DHT22;7652;53.584;9.998;2022-09-12T14:01:22;23.30;99.90
15103;DHT22;7652;53.584;9.998;2022-09-12T14:04:28;23.10;99.90
15103;DHT22;7652;53.584;9.998;2022-09-12T14:07:53;22.90;99.90
15103;DHT22;7652;53.584;9.998;2022-09-12T14:10:56;22.70;99.90
15103;DHT22;7652;53.584;9.998;2022-09-12T14:14:04;22.70;99.90
15103;DHT22;7652;53.584;9.998;2022-09-12T14:17:14;22.80;99.90
15103;DHT22;7652;53.584;9.998;2022-09-12T14:20:24;22.90;99.90
15103;DHT22;7652;53.584;9.998;2022-09-12T14:23:29;23.00;99.90
15103;DHT22;7652;53.584;9.998;2022-09-12T14:26:35;23.20;99.90
15103;DHT22;7652;53.584;9.998;2022-09-12T14:29:41;23.40;99.90
15103;DHT22;7652;53.584;9.998;2022-09-12T14:33:01;23.60;99.90
15103;DHT22;7652;53.584;9.998;2022-09-12T14:36:11;23.80;99.90
15103;DHT22;7652;53.584;9.998;2022-09-12T14:39:23;23.90;99.90
15103;DHT22;7652;53.584;9.998;2022-09-12T14:42:30;23.90;99.90
15103;DHT22;7652;53.584;9.998;2022-09-12T14:45:34;23.90;99.90
15103;DHT22;7652;53.584;9.998;2022-09-12T14:48:42;23.80;99.90
15103;DHT22;7652;53.584;9.998;2022-09-12T14:51:53;23.70;99.90
15103;DHT22;7652;53.584;9.998;2022-09-12T14:54:59;23.60;99.90
15103;DHT22;7652;53.584;9.998;2022-09-12T14:58:15;23.50;99.90
15103;DHT22;7652;53.584;9.998;2022-09-12T15:01:24;23.30;99.90
15103;DHT22;7652;53.584;9.998;2022-09-12T15:04:38;23.30;99.90
15103;DHT22;7652;53.584;9.998;2022-09-12T15:07:44;23.10;99.90
15103;DHT22;7652;53.584;9.998;2022-09-12T15:10:54;23.00;99.90
15103;DHT22;7652;53.584;9.998;2022-09-12T15:13:58;22.90;99.90
15103;DHT22;7652;53.584;9.998;2022-09-12T15:17:08;22.90;99.90
15103;DHT22;7652;53.584;9.998;2022-09-12T15:20:11;22.90;99.90
15103;DHT22;7652;53.584;9.998;2022-09-12T15:23:19;22.80;99.90
15103;DHT22;7652;53.584;9.998;2022-09-12T15:26:26;22.80;99.90
15103;DHT22;7652;53.584;9.998;2022-09-12T15:29:31;22.70;99.90
15103;DHT22;7652;53.584;9.998;2022-09-12T15:32:34;22.70;99.90
15103;DHT22;7652;53.584;9.998;2022-09-12T15:35:38;22.80;99.90
15103;DHT22;7652;53.584;9.998;2022-09-12T15:38:42;22.80;99.90
15103;DHT22;7652;53.584;9.998;2022-09-12T15:41:46;22.80;99.90
15103;DHT22;7652;53.584;9.998;2022-09-12T15:44:52;22.70;99.90
15103;DHT22;7652;53.584;9.998;2022-09-12T15:47:55;22.70;99.90
15103;DHT22;7652;53.584;9.998;2022-09-12T15:50:58;22.70;99.90
15103;DHT22;7652;53.584;9.998;2022-09-12T15:54:04;22.70;99.90
15103;DHT22;7652;53.584;9.998;2022-09-12T15:57:07;22.60;99.90
15103;DHT22;7652;53.584;9.998;2022-09-12T16:00:11;22.60;99.90
15103;DHT22;7652;53.584;9.998;2022-09-12T16:03:19;22.50;99.90
15103;DHT22;7652;53.584;9.998;2022-09-12T16:06:23;22.50;99.90
15103;DHT22;7652;53.584;9.998;2022-09-12T16:09:27;22.40;99.90
15103;DHT22;7652;53.584;9.998;2022-09-12T16:12:30;22.30;99.90
15103;DHT22;7652;53.584;9.998;2022-09-12T16:15:33;22.30;99.90
15103;DHT22;7652;53.584;9.998;2022-09-12T16:18:38;22.20;99.90
15103;DHT22;7652;53.584;9.998;2022-09-12T16:21:41;22.10;99.90
15103;DHT22;7652;53.584;9.998;2022-09-12T16:24:45;22.20;99.90
15103;DHT22;7652;53.584;9.998;2022-09-12T16:27:48;22.20;99.90
15103;DHT22;7652;53.584;9.998;2022-09-12T16:30:55;22.10;99.90
15103;DHT22;7652;53.584;9.998;2022-09-12T16:33:58;22.00;99.90
15103;DHT22;7652;53.584;9.998;2022-09-12T16:37:01;22.00;99.90
15103;DHT22;7652;53.584;9.998;2022-09-12T16:40:06;22.00;99.90
15103;DHT22;7652;53.584;9.998;2022-09-12T16:43:10;21.90;99.90
15103;DHT22;7652;53.584;9.998;2022-09-12T16:46:16;21.80;99.90
15103;DHT22;7652;53.584;9.998;2022-09-12T16:49:19;21.70;99.90
15103;DHT22;7652;53.584;9.998;2022-09-12T16:52:23;21.70;99.90
15103;DHT22;7652;53.584;9.998;2022-09-12T16:55:27;21.70;99.90
15103;DHT22;7652;53.584;9.998;2022-09-12T16:58:34;21.60;99.90
15103;DHT22;7652;53.584;9.998;2022-09-12T17:01:42;21.50;99.90
15103;DHT22;7652;53.584;9.998;2022-09-12T17:04:46;21.40;99.90
15103;DHT22;7652;53.584;9.998;2022-09-12T17:07:49;21.30;99.90
15103;DHT22;7652;53.584;9.998;2022-09-12T17:10:59;21.20;99.90
15103;DHT22;7652;53.584;9.998;2022-09-12T17:14:05;21.20;99.90
15103;DHT22;7652;53.584;9.998;2022-09-12T17:17:08;21.20;99.90
15103;DHT22;7652;53.584;9.998;2022-09-12T17:20:11;21.10;99.90
15103;DHT22;7652;53.584;9.998;2022-09-12T17:23:14;21.10;99.90
15103;DHT22;7652;53.584;9.998;2022-09-12T17:26:19;21.10;99.90
15103;DHT22;7652;53.584;9.998;2022-09-12T17:29:22;21.10;99.90
15103;DHT22;7652;53.584;9.998;2022-09-12T17:32:25;21.10;99.90
15103;DHT22;7652;53.584;9.998;2022-09-12T17:35:28;21.00;99.90
15103;DHT22;7652;53.584;9.998;2022-09-12T17:38:31;20.90;99.90
15103;DHT22;7652;53.584;9.998;2022-09-12T17:41:37;20.90;99.90
15103;DHT22;7652;53.584;9.998;2022-09-12T17:44:43;20.90;99.90
15103;DHT22;7652;53.584;9.998;2022-09-12T17:47:46;20.80;99.90
15103;DHT22;7652;53.584;9.998;2022-09-12T17:50:49;20.80;99.90
15103;DHT22;7652;53.584;9.998;2022-09-12T17:53:56;20.70;99.90
15103;DHT22;7652;53.584;9.998;2022-09-12T17:57:02;20.70;99.90
15103;DHT22;7652;53.584;9.998;2022-09-12T18:00:06;20.70;99.90
15103;DHT22;7652;53.584;9.998;2022-09-12T18:03:10;20.60;99.90
15103;DHT22;7652;53.584;9.998;2022-09-12T18:06:12;20.70;99.90
15103;DHT22;7652;53.584;9.998;2022-09-12T18:09:17;20.60;99.90
15103;DHT22;7652;53.584;9.998;2022-09-12T18:12:21;20.60;99.90
15103;DHT22;7652;53.584;9.998;2022-09-12T18:15:24;20.60;99.90
15103;DHT22;7652;53.584;9.998;2022-09-12T18:18:27;20.50;99.90
15103;DHT22;7652;53.584;9.998;2022-09-12T18:21:31;20.50;99.90
15103;DHT22;7652;53.584;9.998;2022-09-12T18:24:34;20.50;99.90
15103;DHT22;7652;53.584;9.998;2022-09-12T18:27:38;20.50;99.90
15103;DHT22;7652;53.584;9.998;2022-09-12T18:30:41;20.50;99.90
15103;DHT22;7652;53.584;9.998;2022-09-12T18:33:44;20.50;99.90
15103;DHT22;7652;53.584;9.998;2022-09-12T18:36:49;20.40;99.90
15103;DHT22;7652;53.584;9.998;2022-09-12T18:39:54;20.40;99.90
15103;DHT22;7652;53.584;9.998;2022-09-12T18:42:59;20.30;99.90
15103;DHT22;7652;53.584;9.998;2022-09-12T18:46:03;20.30;99.90
15103;DHT22;7652;53.584;9.998;2022-09-12T18:49:06;20.30;99.90
15103;DHT22;7652;53.584;9.998;2022-09-12T18:52:10;20.30;99.90
15103;DHT22;7652;53.584;9.998;2022-09-12T18:55:13;20.30;99.90
15103;DHT22;7652;53.584;9.998;2022-09-12T18:58:17;20.30;99.90
15103;DHT22;7652;53.584;9.998;2022-09-12T19:01:23;20.20;99.90
15103;DHT22;7652;53.584;9.998;2022-09-12T19:04:26;20.30;99.90
15103;DHT22;7652;53.584;9.998;2022-09-12T19:07:29;20.30;99.90
15103;DHT22;7652;53.584;9.998;2022-09-12T19:10:33;20.20;99.90
15103;DHT22;7652;53.584;9.998;2022-09-12T19:13:38;20.20;99.90
15103;DHT22;7652;53.584;9.998;2022-09-12T19:16:42;20.20;99.90
15103;DHT22;7652;53.584;9.998;2022-09-12T19:19:45;20.20;99.90
15103;DHT22;7652;53.584;9.998;2022-09-12T19:22:48;20.10;99.90
15103;DHT22;7652;53.584;9.998;2022-09-12T19:25:54;20.00;99.90
15103;DHT22;7652;53.584;9.998;2022-09-12T19:28:58;19.90;99.90
15103;DHT22;7652;53.584;9.998;2022-09-12T19:32:03;19.90;99.90
15103;DHT22;7652;53.584;9.998;2022-09-12T19:35:07;19.80;99.90
15103;DHT22;7652;53.584;9.998;2022-09-12T19:38:12;19.80;99.90
15103;DHT22;7652;53.584;9.998;2022-09-12T19:41:15;19.80;99.90
15103;DHT22;7652;53.584;9.998;2022-09-12T19:44:21;19.70;99.90
15103;DHT22;7652;53.584;9.998;2022-09-12T19:47:27;19.70;99.90
15103;DHT22;7652;53.584;9.998;2022-09-12T19:50:31;19.60;99.90
15103;DHT22;7652;53.584;9.998;2022-09-12T19:53:34;19.60;99.90
15103;DHT22;7652;53.584;9.998;2022-09-12T19:56:38;19.40;99.90
15103;DHT22;7652;53.584;9.998;2022-09-12T19:59:43;19.40;99.90
15103;DHT22;7652;53.584;9.998;2022-09-12T20:02:49;19.40;99.90
15103;DHT22;7652;53.584;9.998;2022-09-12T20:05:53;19.40;99.90
15103;DHT22;7652;53.584;9.998;2022-09-12T20:08:56;19.30;99.90
15103;DHT22;7652;53.584;9.998;2022-09-12T20:12:00;19.20;99.90
15103;DHT22;7652;53.584;9.998;2022-09-12T20:15:05;19.30;99.90